sensor_id;sensor_type;location;lat;lon;timestamp;temperature;humidity
4908;DHT22;64375;51.540;7.364;2023-06-14T00:01:47;25.00;60.00
4908;DHT22;64375;51.540;7.364;2023-06-14T00:04:15;25.00;58.50
4908;DHT22;64375;51.540;7.364;2023-06-14T00:06:45;25.00;60.00
4908;DHT22;64375;51.540;7.364;2023-06-14T00:09:14;24.90;59.20
4908;DHT22;64375;51.540;7.364;2023-06-14T00:11:50;24.60;56.50
4908;DHT22;64375;51.540;7.364;2023-06-14T00:14:21;24.60;57.00
4908;DHT22;64375;51.540;7.364;2023-06-14T00:16:49;24.50;58.80
4908;DHT22;64375;51.540;7.364;2023-06-14T00:19:25;24.50;59.80
4908;DHT22;64375;51.540;7.364;2023-06-14T00:22:02;24.20;57.10
4908;DHT22;64375;51.540;7.364;2023-06-14T00:24:31;24.20;56.50
4908;DHT22;64375;51.540;7.364;2023-06-14T00:26:59;24.00;55.40
4908;DHT22;64375;51.540;7.364;2023-06-14T00:29:30;24.00;58.90
4908;DHT22;64375;51.540;7.364;2023-06-14T00:32:01;23.90;57.30
4908;DHT22;64375;51.540;7.364;2023-06-14T00:34:32;23.50;54.80
4908;DHT22;64375;51.540;7.364;2023-06-14T00:36:59;23.40;56.90
4908;DHT22;64375;51.540;7.364;2023-06-14T00:39:35;22.90;54.60
4908;DHT22;64375;51.540;7.364;2023-06-14T00:42:06;23.00;58.30
4908;DHT22;64375;51.540;7.364;2023-06-14T00:44:34;23.10;58.20
4908;DHT22;64375;51.540;7.364;2023-06-14T00:47:02;23.20;57.50
4908;DHT22;64375;51.540;7.364;2023-06-14T00:49:30;23.00;55.00
4908;DHT22;64375;51.540;7.364;2023-06-14T00:51:58;23.10;56.20
4908;DHT22;64375;51.540;7.364;2023-06-14T00:54:27;23.20;60.20
4908;DHT22;64375;51.540;7.364;2023-06-14T00:56:56;23.20;57.80
4908;DHT22;64375;51.540;7.364;2023-06-14T00:59:37;23.20;55.60
4908;DHT22;64375;51.540;7.364;2023-06-14T01:02:06;23.30;60.20
4908;DHT22;64375;51.540;7.364;2023-06-14T01:04:34;23.40;61.40
4908;DHT22;64375;51.540;7.364;2023-06-14T01:07:11;23.50;58.70
4908;DHT22;64375;51.540;7.364;2023-06-14T01:09:55;23.70;62.00
4908;DHT22;64375;51.540;7.364;2023-06-14T01:12:33;23.80;61.40
4908;DHT22;64375;51.540;7.364;2023-06-14T01:15:10;23.70;58.70
4908;DHT22;64375;51.540;7.364;2023-06-14T01:17:50;23.80;61.60
4908;DHT22;64375;51.540;7.364;2023-06-14T01:20:19;23.60;55.60
4908;DHT22;64375;51.540;7.364;2023-06-14T01:22:52;23.70;60.10
4908;DHT22;64375;51.540;7.364;2023-06-14T01:25:24;23.70;61.30
4908;DHT22;64375;51.540;7.364;2023-06-14T01:27:55;23.80;60.00
4908;DHT22;64375;51.540;7.364;2023-06-14T01:30:24;23.50;55.80
4908;DHT22;64375;51.540;7.364;2023-06-14T01:32:56;23.50;58.80
4908;DHT22;64375;51.540;7.364;2023-06-14T01:35:25;23.40;58.60
4908;DHT22;64375;51.540;7.364;2023-06-14T01:38:09;23.40;56.40
4908;DHT22;64375;51.540;7.364;2023-06-14T01:40:41;23.20;56.70
4908;DHT22;64375;51.540;7.364;2023-06-14T01:43:17;23.30;60.30
4908;DHT22;64375;51.540;7.364;2023-06-14T01:45:49;23.30;60.20
4908;DHT22;64375;51.540;7.364;2023-06-14T01:48:19;23.20;58.40
4908;DHT22;64375;51.540;7.364;2023-06-14T01:50:48;23.10;56.00
4908;DHT22;64375;51.540;7.364;2023-06-14T01:53:20;23.10;59.20
4908;DHT22;64375;51.540;7.364;2023-06-14T01:55:57;23.00;57.00
4908;DHT22;64375;51.540;7.364;2023-06-14T01:58:25;22.90;58.30
4908;DHT22;64375;51.540;7.364;2023-06-14T02:00:53;23.00;60.90
4908;DHT22;64375;51.540;7.364;2023-06-14T02:03:23;22.90;58.90
4908;DHT22;64375;51.540;7.364;2023-06-14T02:05:54;23.00;59.50
4908;DHT22;64375;51.540;7.364;2023-06-14T02:08:24;22.90;58.50
4908;DHT22;64375;51.540;7.364;2023-06-14T02:10:57;22.80;57.60
4908;DHT22;64375;51.540;7.364;2023-06-14T02:13:29;22.90;59.40
4908;DHT22;64375;51.540;7.364;2023-06-14T02:16:00;22.80;56.80
4908;DHT22;64375;51.540;7.364;2023-06-14T02:18:28;22.60;56.30
4908;DHT22;64375;51.540;7.364;2023-06-14T02:20:59;22.50;56.30
4908;DHT22;64375;51.540;7.364;2023-06-14T02:23:28;22.30;58.70
4908;DHT22;64375;51.540;7.364;2023-06-14T02:26:05;22.10;57.20
4908;DHT22;64375;51.540;7.364;2023-06-14T02:28:36;22.30;59.80
4908;DHT22;64375;51.540;7.364;2023-06-14T02:31:04;22.40;61.30
4908;DHT22;64375;51.540;7.364;2023-06-14T02:33:35;22.50;61.20
4908;DHT22;64375;51.540;7.364;2023-06-14T02:36:03;22.60;61.20
4908;DHT22;64375;51.540;7.364;2023-06-14T02:38:32;22.50;58.00
4908;DHT22;64375;51.540;7.364;2023-06-14T02:41:00;22.40;59.10
4908;DHT22;64375;51.540;7.364;2023-06-14T02:43:29;22.50;61.20
4908;DHT22;64375;51.540;7.364;2023-06-14T02:45:57;22.60;61.80
4908;DHT22;64375;51.540;7.364;2023-06-14T02:48:25;22.50;59.80
4908;DHT22;64375;51.540;7.364;2023-06-14T02:51:06;22.60;61.40
4908;DHT22;64375;51.540;7.364;2023-06-14T02:53:48;22.40;60.30
4908;DHT22;64375;51.540;7.364;2023-06-14T02:56:19;22.20;58.70
4908;DHT22;64375;51.540;7.364;2023-06-14T02:58:49;22.30;62.10
4908;DHT22;64375;51.540;7.364;2023-06-14T03:01:17;22.30;60.00
4908;DHT22;64375;51.540;7.364;2023-06-14T03:03:53;22.30;61.50
4908;DHT22;64375;51.540;7.364;2023-06-14T03:06:21;22.20;61.00
4908;DHT22;64375;51.540;7.364;2023-06-14T03:08:53;22.20;60.80
4908;DHT22;64375;51.540;7.364;2023-06-14T03:11:21;22.20;59.80
4908;DHT22;64375;51.540;7.364;2023-06-14T03:14:08;22.30;61.30
4908;DHT22;64375;51.540;7.364;2023-06-14T03:16:42;22.30;60.10
4908;DHT22;64375;51.540;7.364;2023-06-14T03:19:10;22.10;60.10
4908;DHT22;64375;51.540;7.364;2023-06-14T03:21:38;22.00;61.60
4908;DHT22;64375;51.540;7.364;2023-06-14T03:24:11;22.10;61.30
4908;DHT22;64375;51.540;7.364;2023-06-14T03:26:39;22.00;60.30
4908;DHT22;64375;51.540;7.364;2023-06-14T03:29:07;22.20;63.10
4908;DHT22;64375;51.540;7.364;2023-06-14T03:31:55;22.10;60.60
4908;DHT22;64375;51.540;7.364;2023-06-14T03:34:23;22.10;61.80
4908;DHT22;64375;51.540;7.364;2023-06-14T03:36:51;21.90;59.50
4908;DHT22;64375;51.540;7.364;2023-06-14T03:39:21;21.90;61.30
4908;DHT22;64375;51.540;7.364;2023-06-14T03:41:49;22.00;61.20
4908;DHT22;64375;51.540;7.364;2023-06-14T03:44:18;21.90;59.30
4908;DHT22;64375;51.540;7.364;2023-06-14T03:46:46;22.00;62.10
4908;DHT22;64375;51.540;7.364;2023-06-14T03:49:23;21.90;60.00
4908;DHT22;64375;51.540;7.364;2023-06-14T03:51:51;21.80;59.80
4908;DHT22;64375;51.540;7.364;2023-06-14T03:54:20;21.80;62.00
4908;DHT22;64375;51.540;7.364;2023-06-14T03:56:51;21.80;60.00
4908;DHT22;64375;51.540;7.364;2023-06-14T03:59:22;21.70;61.80
4908;DHT22;64375;51.540;7.364;2023-06-14T04:01:54;21.80;62.50
4908;DHT22;64375;51.540;7.364;2023-06-14T04:04:22;21.60;60.40
4908;DHT22;64375;51.540;7.364;2023-06-14T04:06:56;21.40;59.00
4908;DHT22;64375;51.540;7.364;2023-06-14T04:09:26;21.50;61.40
4908;DHT22;64375;51.540;7.364;2023-06-14T04:11:57;21.40;60.40
4908;DHT22;64375;51.540;7.364;2023-06-14T04:14:25;21.30;59.80
4908;DHT22;64375;51.540;7.364;2023-06-14T04:16:53;20.90;58.40
4908;DHT22;64375;51.540;7.364;2023-06-14T04:19:21;20.80;62.10
4908;DHT22;64375;51.540;7.364;2023-06-14T04:21:49;20.60;58.80
4908;DHT22;64375;51.540;7.364;2023-06-14T04:24:17;20.30;59.90
4908;DHT22;64375;51.540;7.364;2023-06-14T04:26:54;20.10;59.80
4908;DHT22;64375;51.540;7.364;2023-06-14T04:29:25;20.10;63.60
4908;DHT22;64375;51.540;7.364;2023-06-14T04:31:54;20.20;61.90
4908;DHT22;64375;51.540;7.364;2023-06-14T04:34:28;20.00;61.30
4908;DHT22;64375;51.540;7.364;2023-06-14T04:36:58;19.70;61.10
4908;DHT22;64375;51.540;7.364;2023-06-14T04:39:31;19.20;61.70
4908;DHT22;64375;51.540;7.364;2023-06-14T04:42:04;19.00;62.80
4908;DHT22;64375;51.540;7.364;2023-06-14T04:44:33;19.10;64.90
4908;DHT22;64375;51.540;7.364;2023-06-14T04:47:02;19.20;63.30
4908;DHT22;64375;51.540;7.364;2023-06-14T04:49:36;19.30;65.30
4908;DHT22;64375;51.540;7.364;2023-06-14T04:52:05;18.90;63.90
4908;DHT22;64375;51.540;7.364;2023-06-14T04:54:33;18.90;64.40
4908;DHT22;64375;51.540;7.364;2023-06-14T04:57:08;18.70;65.30
4908;DHT22;64375;51.540;7.364;2023-06-14T04:59:40;18.90;65.00
4908;DHT22;64375;51.540;7.364;2023-06-14T05:02:10;19.00;65.00
4908;DHT22;64375;51.540;7.364;2023-06-14T05:04:45;19.00;65.00
4908;DHT22;64375;51.540;7.364;2023-06-14T05:07:14;19.00;64.80
4908;DHT22;64375;51.540;7.364;2023-06-14T05:09:42;19.30;64.80
4908;DHT22;64375;51.540;7.364;2023-06-14T05:12:11;19.40;64.40
4908;DHT22;64375;51.540;7.364;2023-06-14T05:14:39;19.50;64.30
4908;DHT22;64375;51.540;7.364;2023-06-14T05:17:17;19.40;64.80
4908;DHT22;64375;51.540;7.364;2023-06-14T05:19:48;19.60;64.60
4908;DHT22;64375;51.540;7.364;2023-06-14T05:22:16;19.80;64.90
4908;DHT22;64375;51.540;7.364;2023-06-14T05:24:44;20.00;63.80
4908;DHT22;64375;51.540;7.364;2023-06-14T05:27:14;20.00;63.40
4908;DHT22;64375;51.540;7.364;2023-06-14T05:29:42;20.20;63.40
4908;DHT22;64375;51.540;7.364;2023-06-14T05:32:10;20.30;63.30
4908;DHT22;64375;51.540;7.364;2023-06-14T05:34:37;20.10;62.80
4908;DHT22;64375;51.540;7.364;2023-06-14T05:37:05;20.20;63.50
4908;DHT22;64375;51.540;7.364;2023-06-14T05:39:36;20.20;64.30
4908;DHT22;64375;51.540;7.364;2023-06-14T05:42:05;20.50;63.30
4908;DHT22;64375;51.540;7.364;2023-06-14T05:44:35;20.30;63.00
4908;DHT22;64375;51.540;7.364;2023-06-14T05:47:03;20.50;63.80
4908;DHT22;64375;51.540;7.364;2023-06-14T05:49:31;20.60;63.30
4908;DHT22;64375;51.540;7.364;2023-06-14T05:51:59;20.70;63.10
4908;DHT22;64375;51.540;7.364;2023-06-14T05:54:27;20.80;63.70
4908;DHT22;64375;51.540;7.364;2023-06-14T05:56:55;20.90;62.40
4908;DHT22;64375;51.540;7.364;2023-06-14T05:59:34;21.10;62.40
4908;DHT22;64375;51.540;7.364;2023-06-14T06:02:03;21.20;61.70
4908;DHT22;64375;51.540;7.364;2023-06-14T06:04:32;21.10;63.30
4908;DHT22;64375;51.540;7.364;2023-06-14T06:07:02;21.20;62.10
4908;DHT22;64375;51.540;7.364;2023-06-14T06:09:35;21.10;62.20
4908;DHT22;64375;51.540;7.364;2023-06-14T06:12:08;21.20;62.70
4908;DHT22;64375;51.540;7.364;2023-06-14T06:14:53;21.50;64.70
4908;DHT22;64375;51.540;7.364;2023-06-14T06:17:29;21.60;61.60
4908;DHT22;64375;51.540;7.364;2023-06-14T06:20:24;21.70;62.00
4908;DHT22;64375;51.540;7.364;2023-06-14T06:23:04;21.80;62.40
4908;DHT22;64375;51.540;7.364;2023-06-14T06:25:37;21.80;62.20
4908;DHT22;64375;51.540;7.364;2023-06-14T06:28:10;21.80;61.10
4908;DHT22;64375;51.540;7.364;2023-06-14T06:30:42;21.90;61.70
4908;DHT22;64375;51.540;7.364;2023-06-14T06:33:13;21.80;61.60
4908;DHT22;64375;51.540;7.364;2023-06-14T06:35:51;21.80;60.40
4908;DHT22;64375;51.540;7.364;2023-06-14T06:38:22;21.70;62.90
4908;DHT22;64375;51.540;7.364;2023-06-14T06:41:01;21.80;62.00
4908;DHT22;64375;51.540;7.364;2023-06-14T06:43:34;21.80;61.10
4908;DHT22;64375;51.540;7.364;2023-06-14T06:46:10;21.80;60.60
4908;DHT22;64375;51.540;7.364;2023-06-14T06:48:51;21.80;60.70
4908;DHT22;64375;51.540;7.364;2023-06-14T06:51:23;21.80;61.80
4908;DHT22;64375;51.540;7.364;2023-06-14T06:53:55;22.00;61.00
4908;DHT22;64375;51.540;7.364;2023-06-14T06:56:23;21.90;61.30
4908;DHT22;64375;51.540;7.364;2023-06-14T06:58:53;21.50;61.00
4908;DHT22;64375;51.540;7.364;2023-06-14T07:01:26;21.80;62.20
4908;DHT22;64375;51.540;7.364;2023-06-14T07:04:01;22.10;61.80
4908;DHT22;64375;51.540;7.364;2023-06-14T07:06:33;22.10;60.60
4908;DHT22;64375;51.540;7.364;2023-06-14T07:09:04;21.90;60.50
4908;DHT22;64375;51.540;7.364;2023-06-14T07:11:41;21.60;60.10
4908;DHT22;64375;51.540;7.364;2023-06-14T07:14:12;21.80;62.30
4908;DHT22;64375;51.540;7.364;2023-06-14T07:16:41;22.00;61.10
4908;DHT22;64375;51.540;7.364;2023-06-14T07:19:10;21.40;60.30
4908;DHT22;64375;51.540;7.364;2023-06-14T07:21:37;21.20;60.80
4908;DHT22;64375;51.540;7.364;2023-06-14T07:24:06;21.20;62.90
4908;DHT22;64375;51.540;7.364;2023-06-14T07:26:35;21.20;62.10
4908;DHT22;64375;51.540;7.364;2023-06-14T07:29:06;21.10;61.80
4908;DHT22;64375;51.540;7.364;2023-06-14T07:31:34;21.20;62.60
4908;DHT22;64375;51.540;7.364;2023-06-14T07:34:04;21.60;62.50
4908;DHT22;64375;51.540;7.364;2023-06-14T07:36:32;21.70;62.40
4908;DHT22;64375;51.540;7.364;2023-06-14T07:39:00;22.00;62.50
4908;DHT22;64375;51.540;7.364;2023-06-14T07:41:30;22.20;62.40
4908;DHT22;64375;51.540;7.364;2023-06-14T07:44:00;22.30;61.70
4908;DHT22;64375;51.540;7.364;2023-06-14T07:46:32;22.30;60.20
4908;DHT22;64375;51.540;7.364;2023-06-14T07:49:01;22.10;61.30
4908;DHT22;64375;51.540;7.364;2023-06-14T07:51:33;21.90;62.50
4908;DHT22;64375;51.540;7.364;2023-06-14T07:54:01;21.90;62.90
4908;DHT22;64375;51.540;7.364;2023-06-14T07:56:30;22.10;62.70
4908;DHT22;64375;51.540;7.364;2023-06-14T07:58:58;21.60;60.60
4908;DHT22;64375;51.540;7.364;2023-06-14T08:01:33;21.40;60.20
4908;DHT22;64375;51.540;7.364;2023-06-14T08:04:02;21.60;62.10
4908;DHT22;64375;51.540;7.364;2023-06-14T08:06:31;21.50;59.50
4908;DHT22;64375;51.540;7.364;2023-06-14T08:09:04;21.90;60.80
4908;DHT22;64375;51.540;7.364;2023-06-14T08:11:36;21.40;58.10
4908;DHT22;64375;51.540;7.364;2023-06-14T08:14:04;21.20;58.50
4908;DHT22;64375;51.540;7.364;2023-06-14T08:16:32;21.30;58.10
4908;DHT22;64375;51.540;7.364;2023-06-14T08:19:00;21.20;56.30
4908;DHT22;64375;51.540;7.364;2023-06-14T08:21:28;21.10;57.00
4908;DHT22;64375;51.540;7.364;2023-06-14T08:23:57;21.00;57.50
4908;DHT22;64375;51.540;7.364;2023-06-14T08:26:27;21.10;58.10
4908;DHT22;64375;51.540;7.364;2023-06-14T08:28:56;21.30;59.00
4908;DHT22;64375;51.540;7.364;2023-06-14T08:31:27;21.30;59.40
4908;DHT22;64375;51.540;7.364;2023-06-14T08:33:58;21.40;59.60
4908;DHT22;64375;51.540;7.364;2023-06-14T08:36:26;21.50;59.50
4908;DHT22;64375;51.540;7.364;2023-06-14T08:38:57;21.50;59.40
4908;DHT22;64375;51.540;7.364;2023-06-14T08:41:26;21.40;59.10
4908;DHT22;64375;51.540;7.364;2023-06-14T08:43:56;21.60;58.80
4908;DHT22;64375;51.540;7.364;2023-06-14T08:46:26;21.70;58.90
4908;DHT22;64375;51.540;7.364;2023-06-14T08:48:55;21.70;57.60
4908;DHT22;64375;51.540;7.364;2023-06-14T08:51:34;21.80;59.00
4908;DHT22;64375;51.540;7.364;2023-06-14T08:54:03;21.50;59.20
4908;DHT22;64375;51.540;7.364;2023-06-14T08:56:39;21.60;59.30
4908;DHT22;64375;51.540;7.364;2023-06-14T08:59:08;21.50;58.40
4908;DHT22;64375;51.540;7.364;2023-06-14T09:01:39;21.30;58.70
4908;DHT22;64375;51.540;7.364;2023-06-14T09:04:21;21.20;58.70
4908;DHT22;64375;51.540;7.364;2023-06-14T09:06:56;21.40;60.00
4908;DHT22;64375;51.540;7.364;2023-06-14T09:09:25;21.50;60.00
4908;DHT22;64375;51.540;7.364;2023-06-14T09:11:54;21.80;58.20
4908;DHT22;64375;51.540;7.364;2023-06-14T09:14:23;22.00;59.10
4908;DHT22;64375;51.540;7.364;2023-06-14T09:17:02;21.80;58.90
4908;DHT22;64375;51.540;7.364;2023-06-14T09:19:30;21.40;55.50
4908;DHT22;64375;51.540;7.364;2023-06-14T09:22:01;21.40;57.40
4908;DHT22;64375;51.540;7.364;2023-06-14T09:24:33;21.30;57.00
4908;DHT22;64375;51.540;7.364;2023-06-14T09:27:06;21.50;58.40
4908;DHT22;64375;51.540;7.364;2023-06-14T09:29:34;21.30;58.00
4908;DHT22;64375;51.540;7.364;2023-06-14T09:32:06;21.30;57.50
4908;DHT22;64375;51.540;7.364;2023-06-14T09:34:40;21.30;57.20
4908;DHT22;64375;51.540;7.364;2023-06-14T09:37:10;21.00;57.70
4908;DHT22;64375;51.540;7.364;2023-06-14T09:39:51;20.90;57.90
4908;DHT22;64375;51.540;7.364;2023-06-14T09:42:22;21.20;57.60
4908;DHT22;64375;51.540;7.364;2023-06-14T09:44:53;21.50;58.10
4908;DHT22;64375;51.540;7.364;2023-06-14T09:47:24;21.40;58.40
4908;DHT22;64375;51.540;7.364;2023-06-14T09:49:52;21.50;59.10
4908;DHT22;64375;51.540;7.364;2023-06-14T09:52:24;21.60;57.90
4908;DHT22;64375;51.540;7.364;2023-06-14T09:54:59;21.40;58.70
4908;DHT22;64375;51.540;7.364;2023-06-14T09:57:32;21.70;59.00
4908;DHT22;64375;51.540;7.364;2023-06-14T10:00:09;21.90;59.90
4908;DHT22;64375;51.540;7.364;2023-06-14T10:02:40;21.70;58.40
4908;DHT22;64375;51.540;7.364;2023-06-14T10:05:15;21.30;58.20
4908;DHT22;64375;51.540;7.364;2023-06-14T10:07:53;21.20;59.60
4908;DHT22;64375;51.540;7.364;2023-06-14T10:10:23;21.10;60.20
4908;DHT22;64375;51.540;7.364;2023-06-14T10:12:53;20.90;61.00
4908;DHT22;64375;51.540;7.364;2023-06-14T10:15:28;21.00;61.20
4908;DHT22;64375;51.540;7.364;2023-06-14T10:18:04;21.20;61.60
4908;DHT22;64375;51.540;7.364;2023-06-14T10:20:48;21.50;62.10
4908;DHT22;64375;51.540;7.364;2023-06-14T10:23:20;21.40;60.70
4908;DHT22;64375;51.540;7.364;2023-06-14T10:25:50;21.20;60.30
4908;DHT22;64375;51.540;7.364;2023-06-14T10:28:21;21.10;60.20
4908;DHT22;64375;51.540;7.364;2023-06-14T10:31:06;21.30;61.40
4908;DHT22;64375;51.540;7.364;2023-06-14T10:33:49;21.50;62.50
4908;DHT22;64375;51.540;7.364;2023-06-14T10:36:27;21.60;60.20
4908;DHT22;64375;51.540;7.364;2023-06-14T10:39:04;21.60;62.50
4908;DHT22;64375;51.540;7.364;2023-06-14T10:41:38;21.90;62.60
4908;DHT22;64375;51.540;7.364;2023-06-14T10:44:39;21.80;61.30
4908;DHT22;64375;51.540;7.364;2023-06-14T10:47:09;21.60;60.30
4908;DHT22;64375;51.540;7.364;2023-06-14T10:49:40;21.60;60.80
4908;DHT22;64375;51.540;7.364;2023-06-14T10:52:13;21.50;60.10
4908;DHT22;64375;51.540;7.364;2023-06-14T10:55:05;21.50;60.60
4908;DHT22;64375;51.540;7.364;2023-06-14T10:57:40;21.40;60.80
4908;DHT22;64375;51.540;7.364;2023-06-14T11:00:14;21.50;61.70
4908;DHT22;64375;51.540;7.364;2023-06-14T11:02:52;21.50;60.20
4908;DHT22;64375;51.540;7.364;2023-06-14T11:05:27;21.60;60.00
4908;DHT22;64375;51.540;7.364;2023-06-14T11:08:04;21.70;61.70
4908;DHT22;64375;51.540;7.364;2023-06-14T11:10:40;21.80;62.70
4908;DHT22;64375;51.540;7.364;2023-06-14T11:13:08;21.80;62.40
4908;DHT22;64375;51.540;7.364;2023-06-14T11:15:38;22.00;63.70
4908;DHT22;64375;51.540;7.364;2023-06-14T11:18:13;21.80;61.00
4908;DHT22;64375;51.540;7.364;2023-06-14T11:20:46;21.60;61.70
4908;DHT22;64375;51.540;7.364;2023-06-14T11:23:17;21.60;63.20
4908;DHT22;64375;51.540;7.364;2023-06-14T11:25:49;21.80;63.90
4908;DHT22;64375;51.540;7.364;2023-06-14T11:28:17;21.90;61.80
4908;DHT22;64375;51.540;7.364;2023-06-14T11:31:07;21.80;61.30
4908;DHT22;64375;51.540;7.364;2023-06-14T11:33:35;22.00;60.50
4908;DHT22;64375;51.540;7.364;2023-06-14T11:36:05;21.90;61.20
4908;DHT22;64375;51.540;7.364;2023-06-14T11:38:35;22.00;62.70
4908;DHT22;64375;51.540;7.364;2023-06-14T11:41:04;22.00;60.40
4908;DHT22;64375;51.540;7.364;2023-06-14T11:43:32;22.10;60.60
4908;DHT22;64375;51.540;7.364;2023-06-14T11:46:03;22.20;61.70
4908;DHT22;64375;51.540;7.364;2023-06-14T11:48:37;22.10;61.80
4908;DHT22;64375;51.540;7.364;2023-06-14T11:51:05;22.30;61.40
4908;DHT22;64375;51.540;7.364;2023-06-14T11:53:36;22.30;62.90
4908;DHT22;64375;51.540;7.364;2023-06-14T11:56:04;22.30;62.00
4908;DHT22;64375;51.540;7.364;2023-06-14T11:58:32;22.30;62.30
4908;DHT22;64375;51.540;7.364;2023-06-14T12:01:05;22.20;61.10
4908;DHT22;64375;51.540;7.364;2023-06-14T12:03:33;22.50;61.90
4908;DHT22;64375;51.540;7.364;2023-06-14T12:06:06;22.70;62.00
4908;DHT22;64375;51.540;7.364;2023-06-14T12:08:38;22.70;60.60
4908;DHT22;64375;51.540;7.364;2023-06-14T12:11:11;22.50;61.10
4908;DHT22;64375;51.540;7.364;2023-06-14T12:13:40;22.50;61.00
4908;DHT22;64375;51.540;7.364;2023-06-14T12:16:11;22.40;60.30
4908;DHT22;64375;51.540;7.364;2023-06-14T12:18:40;22.40;62.70
4908;DHT22;64375;51.540;7.364;2023-06-14T12:21:10;22.50;61.30
4908;DHT22;64375;51.540;7.364;2023-06-14T12:23:49;22.50;60.00
4908;DHT22;64375;51.540;7.364;2023-06-14T12:26:19;22.50;60.10
4908;DHT22;64375;51.540;7.364;2023-06-14T12:28:48;22.70;62.10
4908;DHT22;64375;51.540;7.364;2023-06-14T12:31:17;22.70;60.40
4908;DHT22;64375;51.540;7.364;2023-06-14T12:33:51;22.40;60.10
4908;DHT22;64375;51.540;7.364;2023-06-14T12:36:19;22.40;59.60
4908;DHT22;64375;51.540;7.364;2023-06-14T12:38:47;22.40;61.70
4908;DHT22;64375;51.540;7.364;2023-06-14T12:41:16;22.70;60.90
4908;DHT22;64375;51.540;7.364;2023-06-14T12:43:44;22.90;61.10
4908;DHT22;64375;51.540;7.364;2023-06-14T12:46:12;22.70;59.40
4908;DHT22;64375;51.540;7.364;2023-06-14T12:48:42;22.80;59.80
4908;DHT22;64375;51.540;7.364;2023-06-14T12:51:10;22.80;58.20
4908;DHT22;64375;51.540;7.364;2023-06-14T12:53:38;22.80;57.90
4908;DHT22;64375;51.540;7.364;2023-06-14T12:56:06;23.00;59.10
4908;DHT22;64375;51.540;7.364;2023-06-14T12:58:34;22.70;59.00
4908;DHT22;64375;51.540;7.364;2023-06-14T13:01:08;22.90;60.00
4908;DHT22;64375;51.540;7.364;2023-06-14T13:03:36;22.90;58.80
4908;DHT22;64375;51.540;7.364;2023-06-14T13:06:06;22.90;59.80
4908;DHT22;64375;51.540;7.364;2023-06-14T13:08:40;23.00;60.40
4908;DHT22;64375;51.540;7.364;2023-06-14T13:11:08;22.90;58.80
4908;DHT22;64375;51.540;7.364;2023-06-14T13:13:36;22.90;59.20
4908;DHT22;64375;51.540;7.364;2023-06-14T13:16:06;23.00;58.80
4908;DHT22;64375;51.540;7.364;2023-06-14T13:18:34;23.00;58.60
4908;DHT22;64375;51.540;7.364;2023-06-14T13:21:02;23.00;58.40
4908;DHT22;64375;51.540;7.364;2023-06-14T13:23:31;23.00;58.70
4908;DHT22;64375;51.540;7.364;2023-06-14T13:26:02;23.10;59.50
4908;DHT22;64375;51.540;7.364;2023-06-14T13:28:30;23.10;59.70
4908;DHT22;64375;51.540;7.364;2023-06-14T13:30:59;23.20;58.60
4908;DHT22;64375;51.540;7.364;2023-06-14T13:33:27;23.20;58.70
4908;DHT22;64375;51.540;7.364;2023-06-14T13:35:55;23.40;60.00
4908;DHT22;64375;51.540;7.364;2023-06-14T13:38:29;23.50;58.10
4908;DHT22;64375;51.540;7.364;2023-06-14T13:41:06;23.50;57.70
4908;DHT22;64375;51.540;7.364;2023-06-14T13:43:34;23.40;56.30
4908;DHT22;64375;51.540;7.364;2023-06-14T13:46:05;23.40;58.30
4908;DHT22;64375;51.540;7.364;2023-06-14T13:48:50;23.30;57.30
4908;DHT22;64375;51.540;7.364;2023-06-14T13:51:36;23.20;57.40
4908;DHT22;64375;51.540;7.364;2023-06-14T13:54:22;23.10;58.70
4908;DHT22;64375;51.540;7.364;2023-06-14T13:57:09;23.20;57.80
4908;DHT22;64375;51.540;7.364;2023-06-14T13:59:58;23.40;58.50
4908;DHT22;64375;51.540;7.364;2023-06-14T14:02:45;23.40;58.40
4908;DHT22;64375;51.540;7.364;2023-06-14T14:05:31;23.30;57.20
4908;DHT22;64375;51.540;7.364;2023-06-14T14:08:16;23.20;58.40
4908;DHT22;64375;51.540;7.364;2023-06-14T14:11:05;23.30;57.50
4908;DHT22;64375;51.540;7.364;2023-06-14T14:13:56;23.10;58.60
4908;DHT22;64375;51.540;7.364;2023-06-14T14:16:45;23.00;57.70
4908;DHT22;64375;51.540;7.364;2023-06-14T14:19:30;22.90;58.30
4908;DHT22;64375;51.540;7.364;2023-06-14T14:22:16;23.10;58.40
4908;DHT22;64375;51.540;7.364;2023-06-14T14:25:02;23.00;58.30
4908;DHT22;64375;51.540;7.364;2023-06-14T14:27:47;23.40;58.40
4908;DHT22;64375;51.540;7.364;2023-06-14T14:30:34;23.60;58.60
4908;DHT22;64375;51.540;7.364;2023-06-14T14:33:06;23.50;57.20
4908;DHT22;64375;51.540;7.364;2023-06-14T14:35:34;23.40;57.10
4908;DHT22;64375;51.540;7.364;2023-06-14T14:38:08;23.40;57.00
4908;DHT22;64375;51.540;7.364;2023-06-14T14:40:36;23.40;57.10
4908;DHT22;64375;51.540;7.364;2023-06-14T14:43:04;23.50;57.10
4908;DHT22;64375;51.540;7.364;2023-06-14T14:45:34;23.60;57.20
4908;DHT22;64375;51.540;7.364;2023-06-14T14:48:02;23.60;57.00
4908;DHT22;64375;51.540;7.364;2023-06-14T14:50:33;23.60;57.00
4908;DHT22;64375;51.540;7.364;2023-06-14T14:53:01;23.60;57.20
4908;DHT22;64375;51.540;7.364;2023-06-14T14:55:28;23.60;57.10
4908;DHT22;64375;51.540;7.364;2023-06-14T14:57:57;23.50;56.00
4908;DHT22;64375;51.540;7.364;2023-06-14T15:00:25;23.30;55.80
4908;DHT22;64375;51.540;7.364;2023-06-14T15:02:54;23.30;55.60
4908;DHT22;64375;51.540;7.364;2023-06-14T15:05:22;23.30;57.40
4908;DHT22;64375;51.540;7.364;2023-06-14T15:07:50;23.50;57.20
4908;DHT22;64375;51.540;7.364;2023-06-14T15:10:18;23.40;56.40
4908;DHT22;64375;51.540;7.364;2023-06-14T15:12:46;23.40;57.00
4908;DHT22;64375;51.540;7.364;2023-06-14T15:15:14;23.50;58.10
4908;DHT22;64375;51.540;7.364;2023-06-14T15:17:45;23.60;57.40
4908;DHT22;64375;51.540;7.364;2023-06-14T15:20:14;23.50;56.10
4908;DHT22;64375;51.540;7.364;2023-06-14T15:22:43;23.60;57.00
4908;DHT22;64375;51.540;7.364;2023-06-14T15:25:11;23.60;55.40
4908;DHT22;64375;51.540;7.364;2023-06-14T15:27:39;23.60;55.60
4908;DHT22;64375;51.540;7.364;2023-06-14T15:30:08;23.40;55.10
4908;DHT22;64375;51.540;7.364;2023-06-14T15:32:39;23.40;55.60
4908;DHT22;64375;51.540;7.364;2023-06-14T15:35:07;23.50;56.00
4908;DHT22;64375;51.540;7.364;2023-06-14T15:37:36;23.50;55.70
4908;DHT22;64375;51.540;7.364;2023-06-14T15:40:06;23.60;56.00
4908;DHT22;64375;51.540;7.364;2023-06-14T15:42:34;23.50;55.80
4908;DHT22;64375;51.540;7.364;2023-06-14T15:45:02;23.60;55.30
4908;DHT22;64375;51.540;7.364;2023-06-14T15:47:30;23.70;54.60
4908;DHT22;64375;51.540;7.364;2023-06-14T15:49:58;23.60;55.70
4908;DHT22;64375;51.540;7.364;2023-06-14T15:52:26;23.50;56.60
4908;DHT22;64375;51.540;7.364;2023-06-14T15:54:55;23.50;58.10
4908;DHT22;64375;51.540;7.364;2023-06-14T15:57:23;23.50;55.50
4908;DHT22;64375;51.540;7.364;2023-06-14T15:59:51;23.40;56.10
4908;DHT22;64375;51.540;7.364;2023-06-14T16:02:19;23.60;56.70
4908;DHT22;64375;51.540;7.364;2023-06-14T16:04:50;23.60;55.20
4908;DHT22;64375;51.540;7.364;2023-06-14T16:07:19;23.50;55.10
4908;DHT22;64375;51.540;7.364;2023-06-14T16:09:52;23.30;55.00
4908;DHT22;64375;51.540;7.364;2023-06-14T16:12:22;23.50;55.40
4908;DHT22;64375;51.540;7.364;2023-06-14T16:14:52;23.40;55.40